sensor_id;sensor_type;location;lat;lon;timestamp;pressure;altitude;pressure_sealevel;temperature;humidity
40794;BME280;26502;51.886;15.604;2023-07-02T00:01:16;99536.94;;;19.06;61.51
40794;BME280;26502;51.886;15.604;2023-07-02T00:06:42;99542.03;;;19.03;61.94
40794;BME280;26502;51.886;15.604;2023-07-02T00:11:47;99538.19;;;19.01;62.45
40794;BME280;26502;51.886;15.604;2023-07-02T00:16:53;99534.39;;;18.93;62.92
40794;BME280;26502;51.886;15.604;2023-07-02T00:21:59;99536.11;;;18.90;63.09
40794;BME280;26502;51.886;15.604;2023-07-02T00:27:05;99531.59;;;18.92;63.68
40794;BME280;26502;51.886;15.604;2023-07-02T00:32:11;99529.44;;;18.88;63.65
40794;BME280;26502;51.886;15.604;2023-07-02T00:37:17;99523.08;;;18.91;63.51
40794;BME280;26502;51.886;15.604;2023-07-02T00:42:23;99513.71;;;18.95;63.60
40794;BME280;26502;51.886;15.604;2023-07-02T00:47:34;99512.46;;;19.01;63.79
40794;BME280;26502;51.886;15.604;2023-07-02T00:52:40;99503.19;;;19.02;64.10
40794;BME280;26502;51.886;15.604;2023-07-02T00:57:46;99493.48;;;18.98;64.16
40794;BME280;26502;51.886;15.604;2023-07-02T01:02:58;99489.49;;;18.97;64.25
40794;BME280;26502;51.886;15.604;2023-07-02T01:08:04;99493.49;;;18.96;64.50
40794;BME280;26502;51.886;15.604;2023-07-02T01:13:17;99490.02;;;18.92;65.13
40794;BME280;26502;51.886;15.604;2023-07-02T01:18:24;99494.64;;;18.87;65.52
40794;BME280;26502;51.886;15.604;2023-07-02T01:23:30;99493.98;;;18.86;65.53
40794;BME280;26502;51.886;15.604;2023-07-02T01:28:38;99490.45;;;18.85;66.03
40794;BME280;26502;51.886;15.604;2023-07-02T01:33:44;99489.73;;;18.85;65.97
40794;BME280;26502;51.886;15.604;2023-07-02T01:38:50;99488.86;;;18.80;66.12
40794;BME280;26502;51.886;15.604;2023-07-02T01:43:56;99483.45;;;18.83;66.27
40794;BME280;26502;51.886;15.604;2023-07-02T01:49:02;99480.02;;;18.85;66.25
40794;BME280;26502;51.886;15.604;2023-07-02T01:54:08;99484.34;;;18.85;66.67
40794;BME280;26502;51.886;15.604;2023-07-02T01:59:14;99488.73;;;18.76;67.09
40794;BME280;26502;51.886;15.604;2023-07-02T02:04:20;99491.73;;;18.74;67.13
40794;BME280;26502;51.886;15.604;2023-07-02T02:09:25;99494.25;;;18.70;67.73
40794;BME280;26502;51.886;15.604;2023-07-02T02:14:33;99492.14;;;18.67;67.68
40794;BME280;26502;51.886;15.604;2023-07-02T02:19:38;99493.13;;;18.66;67.73
40794;BME280;26502;51.886;15.604;2023-07-02T02:24:44;99496.73;;;18.64;68.01
40794;BME280;26502;51.886;15.604;2023-07-02T02:29:50;99497.02;;;18.59;68.22
40794;BME280;26502;51.886;15.604;2023-07-02T02:34:56;99498.58;;;18.59;68.14
40794;BME280;26502;51.886;15.604;2023-07-02T02:40:01;99499.77;;;18.58;68.33
40794;BME280;26502;51.886;15.604;2023-07-02T02:45:10;99506.90;;;18.52;68.67
40794;BME280;26502;51.886;15.604;2023-07-02T02:50:16;99513.39;;;18.47;69.41
40794;BME280;26502;51.886;15.604;2023-07-02T02:55:22;99517.53;;;18.43;69.23
40794;BME280;26502;51.886;15.604;2023-07-02T03:00:28;99518.85;;;18.41;69.28
40794;BME280;26502;51.886;15.604;2023-07-02T03:05:34;99519.30;;;18.37;69.55
40794;BME280;26502;51.886;15.604;2023-07-02T03:10:40;99523.04;;;18.33;69.93
40794;BME280;26502;51.886;15.604;2023-07-02T03:15:45;99525.77;;;18.31;70.02
40794;BME280;26502;51.886;15.604;2023-07-02T03:20:51;99528.12;;;18.28;70.35
40794;BME280;26502;51.886;15.604;2023-07-02T03:25:58;99530.42;;;18.31;69.95
40794;BME280;26502;51.886;15.604;2023-07-02T03:31:03;99533.48;;;18.31;69.95
40794;BME280;26502;51.886;15.604;2023-07-02T03:36:09;99542.55;;;18.30;70.30
40794;BME280;26502;51.886;15.604;2023-07-02T03:41:15;99549.77;;;18.31;70.05
40794;BME280;26502;51.886;15.604;2023-07-02T03:46:21;99548.73;;;18.33;70.10
40794;BME280;26502;51.886;15.604;2023-07-02T03:51:26;99559.43;;;18.30;70.56
40794;BME280;26502;51.886;15.604;2023-07-02T03:56:32;99559.73;;;18.31;70.34
40794;BME280;26502;51.886;15.604;2023-07-02T04:01:38;99557.05;;;18.35;70.25
40794;BME280;26502;51.886;15.604;2023-07-02T04:06:44;99561.23;;;18.34;70.34
40794;BME280;26502;51.886;15.604;2023-07-02T04:11:49;99566.31;;;18.36;70.48
40794;BME280;26502;51.886;15.604;2023-07-02T04:16:55;99567.42;;;18.31;70.86
40794;BME280;26502;51.886;15.604;2023-07-02T04:22:01;99573.56;;;18.33;70.76
40794;BME280;26502;51.886;15.604;2023-07-02T04:27:07;99584.02;;;18.39;70.54
40794;BME280;26502;51.886;15.604;2023-07-02T04:32:13;99590.50;;;18.39;70.59
40794;BME280;26502;51.886;15.604;2023-07-02T04:37:18;99589.48;;;18.44;70.45
40794;BME280;26502;51.886;15.604;2023-07-02T04:42:26;99582.23;;;18.48;70.43
40794;BME280;26502;51.886;15.604;2023-07-02T04:47:33;99598.92;;;18.50;70.27
40794;BME280;26502;51.886;15.604;2023-07-02T04:52:38;99608.64;;;18.55;70.35
40794;BME280;26502;51.886;15.604;2023-07-02T04:57:44;99620.59;;;18.47;70.17
40794;BME280;26502;51.886;15.604;2023-07-02T05:02:50;99620.06;;;18.45;70.22
40794;BME280;26502;51.886;15.604;2023-07-02T05:07:56;99622.41;;;18.44;70.39
40794;BME280;26502;51.886;15.604;2023-07-02T05:13:02;99626.45;;;18.43;70.22
40794;BME280;26502;51.886;15.604;2023-07-02T05:18:07;99621.92;;;18.46;70.20
40794;BME280;26502;51.886;15.604;2023-07-02T05:23:13;99627.59;;;18.47;69.98
40794;BME280;26502;51.886;15.604;2023-07-02T05:28:19;99625.80;;;18.42;70.07
40794;BME280;26502;51.886;15.604;2023-07-02T05:33:25;99635.69;;;18.40;70.00
40794;BME280;26502;51.886;15.604;2023-07-02T05:38:31;99632.94;;;18.43;70.05
40794;BME280;26502;51.886;15.604;2023-07-02T05:43:36;99635.80;;;18.43;70.01
40794;BME280;26502;51.886;15.604;2023-07-02T05:48:42;99643.05;;;18.45;69.98
40794;BME280;26502;51.886;15.604;2023-07-02T05:53:48;99652.52;;;18.54;70.03
40794;BME280;26502;51.886;15.604;2023-07-02T05:58:54;99647.05;;;18.58;69.90
40794;BME280;26502;51.886;15.604;2023-07-02T06:04:00;99646.27;;;18.65;69.83
40794;BME280;26502;51.886;15.604;2023-07-02T06:09:06;99641.62;;;18.66;69.56
40794;BME280;26502;51.886;15.604;2023-07-02T06:14:12;99646.90;;;18.75;69.59
40794;BME280;26502;51.886;15.604;2023-07-02T06:19:18;99650.86;;;18.83;69.25
40794;BME280;26502;51.886;15.604;2023-07-02T06:24:23;99656.09;;;18.92;69.07
40794;BME280;26502;51.886;15.604;2023-07-02T06:29:29;99666.18;;;19.03;68.66
40794;BME280;26502;51.886;15.604;2023-07-02T06:34:35;99667.55;;;18.97;68.27
40794;BME280;26502;51.886;15.604;2023-07-02T06:39:41;99667.63;;;18.92;67.50
40794;BME280;26502;51.886;15.604;2023-07-02T06:44:47;99674.10;;;18.98;67.71
40794;BME280;26502;51.886;15.604;2023-07-02T06:49:54;99670.58;;;19.08;66.88
40794;BME280;26502;51.886;15.604;2023-07-02T06:54:59;99674.77;;;19.22;66.45
40794;BME280;26502;51.886;15.604;2023-07-02T07:00:08;99670.55;;;19.24;65.24
40794;BME280;26502;51.886;15.604;2023-07-02T07:05:14;99663.08;;;19.20;65.34
40794;BME280;26502;51.886;15.604;2023-07-02T07:10:20;99659.39;;;19.39;64.60
40794;BME280;26502;51.886;15.604;2023-07-02T07:15:26;99654.82;;;19.58;64.13
40794;BME280;26502;51.886;15.604;2023-07-02T07:20:32;99654.98;;;19.65;64.04
40794;BME280;26502;51.886;15.604;2023-07-02T07:25:38;99658.55;;;19.80;63.52
40794;BME280;26502;51.886;15.604;2023-07-02T07:30:44;99657.79;;;20.07;63.00
40794;BME280;26502;51.886;15.604;2023-07-02T07:35:50;99653.30;;;20.23;61.82
40794;BME280;26502;51.886;15.604;2023-07-02T07:40:56;99651.35;;;20.41;61.03
40794;BME280;26502;51.886;15.604;2023-07-02T07:46:02;99651.98;;;20.50;59.97
40794;BME280;26502;51.886;15.604;2023-07-02T07:51:07;99659.84;;;20.75;60.00
40794;BME280;26502;51.886;15.604;2023-07-02T07:56:13;99661.63;;;21.07;59.45
40794;BME280;26502;51.886;15.604;2023-07-02T08:01:19;99666.71;;;21.20;57.57
40794;BME280;26502;51.886;15.604;2023-07-02T08:06:25;99679.59;;;21.04;57.15
40794;BME280;26502;51.886;15.604;2023-07-02T08:11:31;99676.48;;;20.87;55.32
40794;BME280;26502;51.886;15.604;2023-07-02T08:16:38;99666.44;;;20.88;55.58
40794;BME280;26502;51.886;15.604;2023-07-02T08:21:44;99673.69;;;21.09;54.52
40794;BME280;26502;51.886;15.604;2023-07-02T08:26:50;99675.48;;;21.14;53.70
40794;BME280;26502;51.886;15.604;2023-07-02T08:31:56;99686.41;;;21.06;53.29
40794;BME280;26502;51.886;15.604;2023-07-02T08:37:03;99686.80;;;20.94;53.19
40794;BME280;26502;51.886;15.604;2023-07-02T08:42:09;99685.65;;;20.89;52.85
40794;BME280;26502;51.886;15.604;2023-07-02T08:47:14;99682.08;;;20.83;52.44
40794;BME280;26502;51.886;15.604;2023-07-02T08:52:20;99683.59;;;21.02;51.80
40794;BME280;26502;51.886;15.604;2023-07-02T08:57:26;99686.95;;;21.12;52.00
40794;BME280;26502;51.886;15.604;2023-07-02T09:02:33;99694.73;;;21.30;51.62
40794;BME280;26502;51.886;15.604;2023-07-02T09:07:46;99696.42;;;21.35;50.92
40794;BME280;26502;51.886;15.604;2023-07-02T09:13:01;99690.94;;;21.51;50.29
40794;BME280;26502;51.886;15.604;2023-07-02T09:18:19;99692.89;;;21.81;50.31
40794;BME280;26502;51.886;15.604;2023-07-02T09:23:34;99677.98;;;21.95;48.96
40794;BME280;26502;51.886;15.604;2023-07-02T09:28:40;99663.73;;;22.08;49.30
40794;BME280;26502;51.886;15.604;2023-07-02T09:33:46;99671.19;;;22.46;49.05
40794;BME280;26502;51.886;15.604;2023-07-02T09:38:53;99682.70;;;22.71;48.28
40794;BME280;26502;51.886;15.604;2023-07-02T09:43:59;99689.55;;;22.93;47.33
40794;BME280;26502;51.886;15.604;2023-07-02T09:49:06;99692.27;;;22.69;45.83
40794;BME280;26502;51.886;15.604;2023-07-02T09:54:13;99696.88;;;22.78;44.74
40794;BME280;26502;51.886;15.604;2023-07-02T09:59:19;99704.52;;;23.03;43.87
40794;BME280;26502;51.886;15.604;2023-07-02T10:04:25;99709.84;;;23.19;43.09
40794;BME280;26502;51.886;15.604;2023-07-02T10:09:38;99705.19;;;22.87;42.29
40794;BME280;26502;51.886;15.604;2023-07-02T10:14:45;99703.02;;;22.93;42.78
40794;BME280;26502;51.886;15.604;2023-07-02T10:19:55;99698.29;;;23.18;42.33
40794;BME280;26502;51.886;15.604;2023-07-02T10:25:01;99701.75;;;22.96;42.19
40794;BME280;26502;51.886;15.604;2023-07-02T10:30:09;99694.85;;;23.08;41.53
40794;BME280;26502;51.886;15.604;2023-07-02T10:35:16;99698.82;;;22.86;40.30
40794;BME280;26502;51.886;15.604;2023-07-02T10:40:23;99706.70;;;22.61;41.31
40794;BME280;26502;51.886;15.604;2023-07-02T10:45:36;99706.43;;;22.56;41.27
40794;BME280;26502;51.886;15.604;2023-07-02T10:50:42;99708.58;;;22.43;40.95
40794;BME280;26502;51.886;15.604;2023-07-02T10:55:54;99720.34;;;22.19;40.63
40794;BME280;26502;51.886;15.604;2023-07-02T11:01:00;99722.22;;;22.05;40.85
40794;BME280;26502;51.886;15.604;2023-07-02T11:06:06;99717.41;;;22.32;41.14
40794;BME280;26502;51.886;15.604;2023-07-02T11:11:12;99709.33;;;22.97;40.81
40794;BME280;26502;51.886;15.604;2023-07-02T11:16:23;99708.27;;;23.15;40.84
40794;BME280;26502;51.886;15.604;2023-07-02T11:21:29;99712.61;;;22.94;41.13
40794;BME280;26502;51.886;15.604;2023-07-02T11:26:40;99722.14;;;22.73;40.81
40794;BME280;26502;51.886;15.604;2023-07-02T11:31:45;99725.27;;;22.59;40.96
40794;BME280;26502;51.886;15.604;2023-07-02T11:36:51;99728.31;;;22.45;40.83
40794;BME280;26502;51.886;15.604;2023-07-02T11:41:58;99732.09;;;22.23;40.71
40794;BME280;26502;51.886;15.604;2023-07-02T11:47:06;99740.80;;;22.07;40.86
40794;BME280;26502;51.886;15.604;2023-07-02T11:52:12;99755.98;;;21.92;41.13
40794;BME280;26502;51.886;15.604;2023-07-02T11:57:19;99764.48;;;21.67;41.27
40794;BME280;26502;51.886;15.604;2023-07-02T12:02:25;99778.77;;;21.37;41.80
40794;BME280;26502;51.886;15.604;2023-07-02T12:07:31;99789.80;;;21.15;42.44
40794;BME280;26502;51.886;15.604;2023-07-02T12:12:37;99802.95;;;20.95;43.10
40794;BME280;26502;51.886;15.604;2023-07-02T12:17:43;99837.84;;;20.68;44.23
40794;BME280;26502;51.886;15.604;2023-07-02T12:22:48;99847.12;;;20.36;45.65
40794;BME280;26502;51.886;15.604;2023-07-02T12:27:54;99853.52;;;20.16;46.77
40794;BME280;26502;51.886;15.604;2023-07-02T12:33:00;99849.88;;;19.93;48.06
40794;BME280;26502;51.886;15.604;2023-07-02T12:38:06;99840.53;;;19.90;48.41
40794;BME280;26502;51.886;15.604;2023-07-02T12:43:12;99841.48;;;19.92;48.76
40794;BME280;26502;51.886;15.604;2023-07-02T12:48:18;99843.80;;;19.86;48.19
40794;BME280;26502;51.886;15.604;2023-07-02T12:53:24;99849.38;;;19.99;48.28
40794;BME280;26502;51.886;15.604;2023-07-02T12:58:30;99849.92;;;20.55;47.74
40794;BME280;26502;51.886;15.604;2023-07-02T13:03:36;99843.27;;;20.84;47.15
40794;BME280;26502;51.886;15.604;2023-07-02T13:08:42;99831.35;;;21.63;46.38
40794;BME280;26502;51.886;15.604;2023-07-02T13:13:48;99824.42;;;22.48;45.42
40794;BME280;26502;51.886;15.604;2023-07-02T13:18:54;99827.61;;;22.98;43.76
40794;BME280;26502;51.886;15.604;2023-07-02T13:24:01;99827.88;;;23.14;41.54
40794;BME280;26502;51.886;15.604;2023-07-02T13:29:06;99830.16;;;23.09;41.34
40794;BME280;26502;51.886;15.604;2023-07-02T13:34:12;99825.99;;;23.46;40.98
40794;BME280;26502;51.886;15.604;2023-07-02T13:39:18;99821.88;;;23.64;40.02
40794;BME280;26502;51.886;15.604;2023-07-02T13:44:24;99815.67;;;23.58;40.36
40794;BME280;26502;51.886;15.604;2023-07-02T13:49:29;99814.90;;;23.96;40.53
40794;BME280;26502;51.886;15.604;2023-07-02T13:54:35;99820.86;;;24.32;39.90
40794;BME280;26502;51.886;15.604;2023-07-02T13:59:41;99814.07;;;23.96;39.71
40794;BME280;26502;51.886;15.604;2023-07-02T14:04:46;99806.55;;;23.84;39.93
40794;BME280;26502;51.886;15.604;2023-07-02T14:09:52;99807.77;;;23.83;40.33
40794;BME280;26502;51.886;15.604;2023-07-02T14:14:59;99816.45;;;23.58;40.77
40794;BME280;26502;51.886;15.604;2023-07-02T14:20:07;99818.17;;;23.57;41.09
40794;BME280;26502;51.886;15.604;2023-07-02T14:25:13;99819.91;;;23.45;41.28
40794;BME280;26502;51.886;15.604;2023-07-02T14:30:19;99820.59;;;23.94;41.41
40794;BME280;26502;51.886;15.604;2023-07-02T14:35:25;99822.73;;;23.55;41.23
40794;BME280;26502;51.886;15.604;2023-07-02T14:40:32;99817.46;;;23.00;41.97
40794;BME280;26502;51.886;15.604;2023-07-02T14:45:44;99826.41;;;22.52;42.68
40794;BME280;26502;51.886;15.604;2023-07-02T14:50:52;99839.17;;;22.32;43.37
40794;BME280;26502;51.886;15.604;2023-07-02T14:55:59;99829.72;;;23.15;43.19
40794;BME280;26502;51.886;15.604;2023-07-02T15:01:05;99830.19;;;23.67;42.75
40794;BME280;26502;51.886;15.604;2023-07-02T15:06:13;99817.47;;;23.35;42.30
40794;BME280;26502;51.886;15.604;2023-07-02T15:11:20;99826.35;;;23.82;42.92
40794;BME280;26502;51.886;15.604;2023-07-02T15:16:26;99831.52;;;23.81;42.23
40794;BME280;26502;51.886;15.604;2023-07-02T15:21:32;99834.67;;;23.44;42.61
40794;BME280;26502;51.886;15.604;2023-07-02T15:26:38;99833.58;;;23.55;42.68
40794;BME280;26502;51.886;15.604;2023-07-02T15:31:44;99839.04;;;23.60;42.48
40794;BME280;26502;51.886;15.604;2023-07-02T15:36:50;99836.16;;;23.80;41.91
40794;BME280;26502;51.886;15.604;2023-07-02T15:41:56;99834.42;;;24.01;41.99
40794;BME280;26502;51.886;15.604;2023-07-02T15:47:01;99837.52;;;23.97;41.14
40794;BME280;26502;51.886;15.604;2023-07-02T15:52:08;99842.48;;;24.16;40.64
40794;BME280;26502;51.886;15.604;2023-07-02T15:57:14;99848.58;;;23.72;40.07
40794;BME280;26502;51.886;15.604;2023-07-02T16:02:20;99844.20;;;23.19;40.30
40794;BME280;26502;51.886;15.604;2023-07-02T16:07:26;99846.03;;;23.54;40.72
40794;BME280;26502;51.886;15.604;2023-07-02T16:12:31;99842.54;;;23.83;39.99
40794;BME280;26502;51.886;15.604;2023-07-02T16:17:39;99845.13;;;23.83;39.53
40794;BME280;26502;51.886;15.604;2023-07-02T16:22:45;99849.11;;;23.74;39.04
40794;BME280;26502;51.886;15.604;2023-07-02T16:27:50;99849.73;;;23.60;39.26
40794;BME280;26502;51.886;15.604;2023-07-02T16:32:56;99853.81;;;23.63;38.85
40794;BME280;26502;51.886;15.604;2023-07-02T16:38:02;99849.61;;;23.54;38.51
40794;BME280;26502;51.886;15.604;2023-07-02T16:43:09;99850.53;;;23.49;38.37
40794;BME280;26502;51.886;15.604;2023-07-02T16:48:15;99856.69;;;23.39;38.23
40794;BME280;26502;51.886;15.604;2023-07-02T16:53:21;99847.99;;;23.43;38.46
40794;BME280;26502;51.886;15.604;2023-07-02T16:58:28;99853.20;;;23.25;38.40
40794;BME280;26502;51.886;15.604;2023-07-02T17:03:34;99858.43;;;23.25;38.63
40794;BME280;26502;51.886;15.604;2023-07-02T17:08:41;99866.19;;;23.21;38.50
40794;BME280;26502;51.886;15.604;2023-07-02T17:13:47;99868.61;;;23.05;38.63
40794;BME280;26502;51.886;15.604;2023-07-02T17:18:52;99876.27;;;22.91;38.08
40794;BME280;26502;51.886;15.604;2023-07-02T17:23:58;99884.03;;;22.72;38.37
40794;BME280;26502;51.886;15.604;2023-07-02T17:29:04;99886.73;;;22.59;38.35
40794;BME280;26502;51.886;15.604;2023-07-02T17:34:10;99889.41;;;22.46;38.50
40794;BME280;26502;51.886;15.604;2023-07-02T17:39:16;99886.36;;;22.32;38.44
40794;BME280;26502;51.886;15.604;2023-07-02T17:44:24;99890.58;;;22.18;38.64
40794;BME280;26502;51.886;15.604;2023-07-02T17:49:29;99889.63;;;22.08;38.82
40794;BME280;26502;51.886;15.604;2023-07-02T17:54:37;99891.05;;;22.09;39.12
40794;BME280;26502;51.886;15.604;2023-07-02T17:59:44;99894.13;;;22.03;39.15
40794;BME280;26502;51.886;15.604;2023-07-02T18:04:51;99900.80;;;21.88;39.30
40794;BME280;26502;51.886;15.604;2023-07-02T18:09:57;99908.41;;;21.77;39.23
40794;BME280;26502;51.886;15.604;2023-07-02T18:15:03;99918.91;;;21.63;39.05
40794;BME280;26502;51.886;15.604;2023-07-02T18:20:10;99924.02;;;21.63;39.10
40794;BME280;26502;51.886;15.604;2023-07-02T18:25:19;99927.89;;;21.52;39.28
40794;BME280;26502;51.886;15.604;2023-07-02T18:30:25;99932.70;;;21.40;39.07
40794;BME280;26502;51.886;15.604;2023-07-02T18:35:33;99933.64;;;21.24;39.34
40794;BME280;26502;51.886;15.604;2023-07-02T18:40:40;99936.77;;;21.13;39.71
40794;BME280;26502;51.886;15.604;2023-07-02T18:45:53;99946.57;;;21.08;39.91
40794;BME280;26502;51.886;15.604;2023-07-02T18:51:00;99952.56;;;20.98;40.20
40794;BME280;26502;51.886;15.604;2023-07-02T18:56:08;99954.08;;;20.82;40.52
40794;BME280;26502;51.886;15.604;2023-07-02T19:01:15;99957.65;;;20.74;40.81
40794;BME280;26502;51.886;15.604;2023-07-02T19:06:21;99958.73;;;20.65;40.98
40794;BME280;26502;51.886;15.604;2023-07-02T19:11:27;99964.04;;;20.45;41.13
40794;BME280;26502;51.886;15.604;2023-07-02T19:16:33;99971.84;;;20.26;41.48
40794;BME280;26502;51.886;15.604;2023-07-02T19:21:41;99978.35;;;20.08;41.67
40794;BME280;26502;51.886;15.604;2023-07-02T19:26:47;99987.94;;;20.03;41.79
40794;BME280;26502;51.886;15.604;2023-07-02T19:31:55;99989.25;;;19.94;41.86
40794;BME280;26502;51.886;15.604;2023-07-02T19:37:01;99994.25;;;19.88;41.97
40794;BME280;26502;51.886;15.604;2023-07-02T19:42:08;100002.31;;;19.77;42.33
40794;BME280;26502;51.886;15.604;2023-07-02T19:47:18;100008.38;;;19.64;42.21
40794;BME280;26502;51.886;15.604;2023-07-02T19:52:24;100011.52;;;19.59;42.53
40794;BME280;26502;51.886;15.604;2023-07-02T19:57:30;100018.42;;;19.56;42.66
40794;BME280;26502;51.886;15.604;2023-07-02T20:02:37;100014.56;;;19.59;43.22
40794;BME280;26502;51.886;15.604;2023-07-02T20:07:44;100024.61;;;19.60;43.53
40794;BME280;26502;51.886;15.604;2023-07-02T20:12:52;100024.34;;;19.56;43.84
40794;BME280;26502;51.886;15.604;2023-07-02T20:17:58;100031.42;;;19.47;43.85
40794;BME280;26502;51.886;15.604;2023-07-02T20:23:04;100037.85;;;19.32;43.77
40794;BME280;26502;51.886;15.604;2023-07-02T20:28:10;100042.30;;;19.16;44.02
40794;BME280;26502;51.886;15.604;2023-07-02T20:33:16;100041.94;;;19.04;44.31
40794;BME280;26502;51.886;15.604;2023-07-02T20:38:21;100041.41;;;18.97;44.71
40794;BME280;26502;51.886;15.604;2023-07-02T20:43:29;100043.41;;;18.76;44.57
40794;BME280;26502;51.886;15.604;2023-07-02T20:48:35;100045.05;;;18.22;44.54
40794;BME280;26502;51.886;15.604;2023-07-02T20:53:41;100057.15;;;17.82;45.27
40794;BME280;26502;51.886;15.604;2023-07-02T20:58:47;100060.45;;;17.81;45.88
40794;BME280;26502;51.886;15.604;2023-07-02T21:03:53;100060.98;;;17.83;46.16
40794;BME280;26502;51.886;15.604;2023-07-02T21:09:00;100064.52;;;17.75;46.49
40794;BME280;26502;51.886;15.604;2023-07-02T21:14:06;100067.23;;;17.59;46.63
40794;BME280;26502;51.886;15.604;2023-07-02T21:19:12;100075.30;;;17.52;47.04
40794;BME280;26502;51.886;15.604;2023-07-02T21:24:18;100077.70;;;17.43;47.29
40794;BME280;26502;51.886;15.604;2023-07-02T21:29:24;100085.01;;;17.26;47.65
40794;BME280;26502;51.886;15.604;2023-07-02T21:34:30;100083.66;;;17.17;47.81
40794;BME280;26502;51.886;15.604;2023-07-02T21:39:38;100087.86;;;17.05;48.05
40794;BME280;26502;51.886;15.604;2023-07-02T21:44:43;100093.05;;;16.82;48.30
40794;BME280;26502;51.886;15.604;2023-07-02T21:49:49;100096.90;;;16.59;48.74
40794;BME280;26502;51.886;15.604;2023-07-02T21:54:55;100095.78;;;16.46;49.06
40794;BME280;26502;51.886;15.604;2023-07-02T22:00:01;100101.89;;;16.46;49.38
40794;BME280;26502;51.886;15.604;2023-07-02T22:05:08;100101.64;;;16.46;49.76
40794;BME280;26502;51.886;15.604;2023-07-02T22:10:14;100100.30;;;16.42;49.77
40794;BME280;26502;51.886;15.604;2023-07-02T22:15:20;100110.18;;;16.37;49.87
40794;BME280;26502;51.886;15.604;2023-07-02T22:20:26;100109.02;;;16.30;49.94
40794;BME280;26502;51.886;15.604;2023-07-02T22:25:32;100113.45;;;16.05;50.12
40794;BME280;26502;51.886;15.604;2023-07-02T22:30:38;100112.79;;;15.73;50.43
40794;BME280;26502;51.886;15.604;2023-07-02T22:35:44;100113.93;;;15.43;50.78
40794;BME280;26502;51.886;15.604;2023-07-02T22:40:50;100115.38;;;15.46;51.30
40794;BME280;26502;51.886;15.604;2023-07-02T22:45:56;100116.42;;;15.43;51.36
40794;BME280;26502;51.886;15.604;2023-07-02T22:51:02;100116.21;;;15.26;51.66
40794;BME280;26502;51.886;15.604;2023-07-02T22:56:12;100116.67;;;15.34;51.96
40794;BME280;26502;51.886;15.604;2023-07-02T23:01:18;100117.55;;;15.37;52.46
40794;BME280;26502;51.886;15.604;2023-07-02T23:06:24;100117.40;;;15.30;52.50
40794;BME280;26502;51.886;15.604;2023-07-02T23:11:30;100114.46;;;15.32;52.85
40794;BME280;26502;51.886;15.604;2023-07-02T23:16:36;100118.77;;;15.31;52.93
40794;BME280;26502;51.886;15.604;2023-07-02T23:21:42;100118.36;;;14.96;52.74
40794;BME280;26502;51.886;15.604;2023-07-02T23:26:50;100125.30;;;14.69;53.23
40794;BME280;26502;51.886;15.604;2023-07-02T23:31:55;100126.02;;;14.66;53.96
40794;BME280;26502;51.886;15.604;2023-07-02T23:37:01;100126.91;;;14.91;54.12
40794;BME280;26502;51.886;15.604;2023-07-02T23:42:07;100124.88;;;15.07;54.10
40794;BME280;26502;51.886;15.604;2023-07-02T23:47:13;100124.73;;;15.18;54.06
40794;BME280;26502;51.886;15.604;2023-07-02T23:52:19;100124.30;;;15.26;54.08
40794;BME280;26502;51.886;15.604;2023-07-02T23:57:24;100116.08;;;15.25;54.19
